Time;durP1;ratioP1;P1;durP2;ratioP2;P2;SDS_P1;SDS_P2;PMS_P1;PMS_P2;Temp;Humidity;BMP_temperature;BMP_pressure;BME280_temperature;BME280_humidity;BME280_pressure;Samples;Min_cycle;Max_cycle;Signal;HPM_P1;HPM_P2
2023/12/21 00:01:59;;;;;;;16.10;9.43;;;;;;;8.02;100.00;100737.91;5031371;28;20029;-80
2023/12/21 00:04:25;;;;;;;14.70;9.65;;;;;;;8.04;100.00;100729.94;5045324;28;20021;-80
2023/12/21 00:06:50;;;;;;;19.17;9.80;;;;;;;8.04;100.00;100720.31;5037290;28;20032;-81
2023/12/21 00:09:16;;;;;;;17.10;9.93;;;;;;;8.04;100.00;100716.84;5037241;28;20393;-81
2023/12/21 00:11:41;;;;;;;18.80;9.70;;;;;;;8.05;100.00;100694.94;5049131;28;20021;-81
2023/12/21 00:14:06;;;;;;;18.65;9.88;;;;;;;8.07;100.00;100696.50;5040804;28;20008;-80
2023/12/21 00:16:32;;;;;;;20.58;10.00;;;;;;;8.06;100.00;100686.97;5049416;28;20051;-79
2023/12/21 00:19:00;;;;;;;18.92;9.57;;;;;;;8.07;100.00;100686.03;5039350;28;20074;-79
2023/12/21 00:21:25;;;;;;;16.42;9.45;;;;;;;8.08;100.00;100684.25;5046625;28;20076;-80
2023/12/21 00:23:51;;;;;;;17.45;9.00;;;;;;;8.07;100.00;100688.66;5047161;28;20076;-80
2023/12/21 00:26:16;;;;;;;18.70;10.13;;;;;;;8.07;100.00;100682.56;5046636;28;20366;-80
2023/12/21 00:28:41;;;;;;;19.15;9.68;;;;;;;8.06;100.00;100673.88;5037296;28;20021;-79
2023/12/21 00:31:07;;;;;;;22.35;10.68;;;;;;;8.07;100.00;100665.06;5035874;28;20029;-79
2023/12/21 00:33:32;;;;;;;20.45;11.30;;;;;;;8.06;100.00;100655.53;5036695;28;20102;-79
2023/12/21 00:35:58;;;;;;;19.42;10.60;;;;;;;8.05;100.00;100650.41;5043444;28;20102;-80
2023/12/21 00:38:23;;;;;;;28.15;11.45;;;;;;;8.04;100.00;100652.19;5049592;28;20471;-80
2023/12/21 00:40:48;;;;;;;18.17;10.82;;;;;;;8.04;100.00;100652.19;5046414;28;20032;-80
2023/12/21 00:43:14;;;;;;;19.55;11.10;;;;;;;8.04;100.00;100652.19;5037344;28;20047;-80
2023/12/21 00:45:39;;;;;;;20.83;11.68;;;;;;;8.03;100.00;100636.56;5028165;28;20362;-80
2023/12/21 00:48:05;;;;;;;23.33;13.13;;;;;;;8.04;100.00;100633.84;5037382;28;20179;-80
2023/12/21 00:50:30;;;;;;;19.30;12.05;;;;;;;8.04;100.00;100622.53;5047107;28;20071;-80
2023/12/21 00:52:56;;;;;;;20.48;11.80;;;;;;;8.03;100.00;100615.59;5049028;28;20099;-80
2023/12/21 00:55:21;;;;;;;19.88;12.30;;;;;;;8.02;100.00;100608.69;5044682;28;20078;-80
2023/12/21 00:57:46;;;;;;;18.73;12.27;;;;;;;8.03;100.00;100613.81;5031838;28;20444;-80
2023/12/21 01:00:12;;;;;;;18.92;12.18;;;;;;;8.03;100.00;100605.13;5041106;28;20030;-80
2023/12/21 01:02:38;;;;;;;18.92;11.57;;;;;;;8.03;100.00;100595.47;5045583;28;20044;-80
2023/12/21 01:05:04;;;;;;;20.20;12.60;;;;;;;8.04;100.00;100589.28;5033508;28;20031;-80
2023/12/21 01:07:29;;;;;;;20.13;11.98;;;;;;;8.03;100.00;100590.25;5040814;28;20484;-80
2023/12/21 01:09:55;;;;;;;19.92;11.50;;;;;;;8.04;100.00;100584.06;5036672;28;20021;-80
2023/12/21 01:12:20;;;;;;;18.77;12.15;;;;;;;8.03;100.00;100566.66;5043995;28;20040;-80
2023/12/21 01:14:45;;;;;;;17.33;11.35;;;;;;;8.04;100.00;100567.50;5031559;28;20083;-80
2023/12/21 01:17:11;;;;;;;20.65;11.80;;;;;;;8.04;100.00;100573.56;5031388;28;20382;-80
2023/12/21 01:19:36;;;;;;;21.92;11.02;;;;;;;8.03;100.00;100556.19;5030930;28;20068;-79
2023/12/21 01:22:02;;;;;;;19.45;11.20;;;;;;;8.04;100.00;100557.84;5042288;28;20029;-79
2023/12/21 01:24:28;;;;;;;20.30;10.90;;;;;;;8.05;100.00;100575.25;5044975;28;20061;-79
2023/12/21 01:26:53;;;;;;;17.60;10.07;;;;;;;8.04;100.00;100564.88;5042386;28;20112;-79
2023/12/21 01:29:18;;;;;;;21.10;11.25;;;;;;;8.05;100.00;100571.78;5029487;28;20033;-79
2023/12/21 01:31:44;;;;;;;20.85;10.93;;;;;;;8.03;100.00;100564.03;5038005;28;20029;-79
2023/12/21 01:34:09;;;;;;;21.00;10.70;;;;;;;8.04;100.00;100564.88;5048146;28;20037;-79
2023/12/21 01:36:34;;;;;;;18.55;10.55;;;;;;;8.04;100.00;100551.78;5042749;28;20810;-80
2023/12/21 01:39:00;;;;;;;18.83;10.40;;;;;;;8.02;100.00;100536.16;5037299;28;20077;-80
2023/12/21 01:41:25;;;;;;;19.77;11.63;;;;;;;8.04;100.00;100536.91;5039525;28;20067;-80
2023/12/21 01:43:50;;;;;;;21.90;12.00;;;;;;;8.05;100.00;100543.81;5041717;28;20099;-80
2023/12/21 01:46:16;;;;;;;20.83;11.45;;;;;;;8.04;100.00;100530.81;5037535;28;20041;-80
2023/12/21 01:48:42;;;;;;;22.40;12.25;;;;;;;8.04;100.00;100531.66;5028593;28;20477;-80
2023/12/21 01:51:09;;;;;;;18.42;11.68;;;;;;;8.04;100.00;100533.44;5032648;28;20028;-80
2023/12/21 01:53:36;;;;;;;20.38;13.25;;;;;;;8.04;100.00;100525.56;5038492;28;20044;-80
2023/12/21 01:56:02;;;;;;;20.45;13.02;;;;;;;8.04;100.00;100515.09;5044830;28;20033;-79
2023/12/21 01:58:30;;;;;;;25.75;13.95;;;;;;;8.04;100.00;100523.78;5045536;28;20171;-80
2023/12/21 02:00:58;;;;;;;25.55;14.85;;;;;;;8.04;100.00;100521.19;5045910;28;20037;-80
2023/12/21 02:03:28;;;;;;;26.27;14.98;;;;;;;8.05;100.00;100525.47;5037445;28;20482;-79
2023/12/21 02:05:53;;;;;;;21.50;14.98;;;;;;;8.06;100.00;100528.94;5029063;28;20036;-80
2023/12/21 02:08:19;;;;;;;24.33;14.98;;;;;;;8.05;100.00;100517.63;5029905;28;20033;-79
2023/12/21 02:10:44;;;;;;;24.08;15.48;;;;;;;8.06;100.00;100528.94;5034346;28;20115;-81
2023/12/21 02:13:09;;;;;;;24.63;15.70;;;;;;;8.06;100.00;100528.94;5043515;28;20033;-81
2023/12/21 02:15:35;;;;;;;23.30;14.95;;;;;;;8.06;100.00;100529.78;5043508;28;20400;-80
2023/12/21 02:18:03;;;;;;;20.92;14.68;;;;;;;8.06;100.00;100527.16;5030191;28;20044;-80
2023/12/21 02:20:29;;;;;;;22.08;14.55;;;;;;;8.07;100.00;100509.66;5031734;28;20028;-80
2023/12/21 02:22:59;;;;;;;25.15;14.25;;;;;;;8.06;100.00;100516.66;5041964;28;20087;-80
2023/12/21 02:25:25;;;;;;;26.70;14.27;;;;;;;8.07;100.00;100513.09;5038746;28;20021;-81
2023/12/21 02:27:50;;;;;;;26.00;13.95;;;;;;;8.07;100.00;100515.72;5028938;28;20548;-81
2023/12/21 02:30:15;;;;;;;22.42;13.82;;;;;;;8.07;100.00;100497.38;5043618;28;20195;-81
2023/12/21 02:32:41;;;;;;;22.90;13.48;;;;;;;8.07;100.00;100494.75;5050983;28;20024;-81
2023/12/21 02:35:06;;;;;;;21.42;12.80;;;;;;;8.07;100.00;100486.91;5051365;28;20067;-81
2023/12/21 02:37:32;;;;;;;24.38;13.25;;;;;;;8.10;100.00;100478.00;5047812;28;20024;-81
2023/12/21 02:39:59;;;;;;;23.50;13.15;;;;;;;8.09;100.00;100476.31;5047398;28;20056;-81
2023/12/21 02:42:25;;;;;;;26.35;13.80;;;;;;;8.07;100.00;100472.97;5052690;28;20075;-81
2023/12/21 02:44:50;;;;;;;24.17;12.80;;;;;;;8.08;100.00;100459.75;5046210;28;20029;-81
2023/12/21 02:47:15;;;;;;;26.05;13.55;;;;;;;8.08;100.00;100467.63;5033089;28;20041;-81
2023/12/21 02:49:41;;;;;;;21.85;12.90;;;;;;;8.08;100.00;100464.16;5031030;28;20021;-81
2023/12/21 02:52:06;;;;;;;28.33;13.85;;;;;;;8.07;100.00;100467.72;5031513;28;20022;-81
2023/12/21 02:54:31;;;;;;;25.48;12.32;;;;;;;8.09;100.00;100466.66;5030879;28;20856;-81
2023/12/21 02:57:00;;;;;;;22.13;12.88;;;;;;;8.09;100.00;100465.84;5031659;28;20105;-81
2023/12/21 02:59:26;;;;;;;24.30;12.52;;;;;;;8.07;100.00;100460.69;5046351;28;20378;-81
2023/12/21 03:01:51;;;;;;;28.35;12.25;;;;;;;8.07;100.00;100452.84;5032170;28;20013;-78
2023/12/21 03:04:17;;;;;;;27.08;12.15;;;;;;;8.08;100.00;100457.13;5038732;28;20574;-80
2023/12/21 03:06:43;;;;;;;25.95;11.85;;;;;;;8.08;100.00;100454.50;5047784;28;20036;-79
2023/12/21 03:09:09;;;;;;;22.58;11.55;;;;;;;8.10;100.00;100451.78;5044425;28;20107;-80
2023/12/21 03:11:35;;;;;;;29.50;11.55;;;;;;;8.07;100.00;100442.34;5031753;28;20108;-79
2023/12/21 03:14:00;;;;;;;26.55;11.02;;;;;;;8.10;100.00;100434.28;5049483;28;20039;-80
2023/12/21 03:16:25;;;;;;;23.58;9.75;;;;;;;8.10;100.00;100429.03;5048727;28;20059;-80
2023/12/21 03:18:51;;;;;;;23.65;10.13;;;;;;;8.12;100.00;100397.50;5040710;28;20500;-80
2023/12/21 03:21:16;;;;;;;24.45;9.95;;;;;;;8.11;100.00;100375.69;5036094;28;20117;-80
2023/12/21 03:23:42;;;;;;;24.17;10.02;;;;;;;8.12;100.00;100368.66;5045423;28;20029;-80
2023/12/21 03:26:08;;;;;;;23.17;9.50;;;;;;;8.11;100.00;100357.34;5049950;28;20385;-81
2023/12/21 03:28:34;;;;;;;22.85;9.90;;;;;;;8.12;100.00;100352.94;5031316;28;20421;-81
2023/12/21 03:31:00;;;;;;;26.92;10.18;;;;;;;8.12;100.00;100345.94;5035463;28;20040;-79
2023/12/21 03:33:26;;;;;;;26.40;9.35;;;;;;;8.13;100.00;100352.84;5034586;28;20045;-80
2023/12/21 03:35:51;;;;;;;21.92;9.15;;;;;;;8.13;100.00;100352.84;5030768;28;20087;-80
2023/12/21 03:38:17;;;;;;;30.48;10.18;;;;;;;8.14;100.00;100343.19;5044567;28;20428;-79
2023/12/21 03:40:42;;;;;;;29.70;9.25;;;;;;;8.14;100.00;100330.94;5051314;28;20032;-80
2023/12/21 03:43:08;;;;;;;26.70;9.18;;;;;;;8.14;100.00;100323.06;5042025;28;20029;-80
2023/12/21 03:45:39;;;;;;;26.80;8.98;;;;;;;8.13;100.00;100324.00;5046864;28;20060;-79
2023/12/21 03:48:06;;;;;;;28.25;9.68;;;;;;;8.14;100.00;100319.59;5049410;28;20063;-80
2023/12/21 03:50:31;;;;;;;21.30;9.27;;;;;;;8.15;100.00;100311.63;5049993;28;20445;-80
2023/12/21 03:53:00;;;;;;;27.88;9.77;;;;;;;8.16;100.00;100310.69;5049976;28;20116;-80
2023/12/21 03:55:25;;;;;;;26.77;9.85;;;;;;;8.15;100.00;100309.03;5050762;28;20036;-80
2023/12/21 03:57:51;;;;;;;26.85;9.63;;;;;;;8.16;100.00;100305.44;5041347;28;20078;-80
2023/12/21 04:00:18;;;;;;;25.77;10.73;;;;;;;8.15;100.00;100303.78;5036494;28;20033;-81
2023/12/21 04:02:46;;;;;;;26.00;10.85;;;;;;;8.17;100.00;100283.53;5048906;28;20016;-81
2023/12/21 04:05:12;;;;;;;26.75;11.30;;;;;;;8.17;100.00;100285.31;5036432;28;20041;-80
2023/12/21 04:07:38;;;;;;;28.25;11.73;;;;;;;8.18;100.00;100287.81;5023083;28;20574;-81
2023/12/21 04:10:03;;;;;;;30.02;12.88;;;;;;;8.18;100.00;100282.59;5034652;28;20041;-81
2023/12/21 04:12:29;;;;;;;25.92;12.48;;;;;;;8.18;100.00;100295.69;5029272;28;20026;-82
2023/12/21 04:14:54;;;;;;;27.50;12.60;;;;;;;8.21;100.00;100288.56;5046027;28;20057;-82
2023/12/21 04:17:20;;;;;;;30.50;12.77;;;;;;;8.22;100.00;100271.88;5047050;28;20028;-79
2023/12/21 04:19:45;;;;;;;28.55;12.95;;;;;;;8.24;100.00;100275.22;5046363;28;20021;-81
2023/12/21 04:22:10;;;;;;;30.10;13.52;;;;;;;8.24;100.00;100265.56;5040431;28;20060;-80
2023/12/21 04:24:36;;;;;;;23.65;12.50;;;;;;;8.28;100.00;100260.94;5028755;28;20025;-81
2023/12/21 04:27:01;;;;;;;25.88;12.80;;;;;;;8.27;100.00;100248.78;5029766;28;20065;-80
2023/12/21 04:29:26;;;;;;;27.80;13.43;;;;;;;8.30;100.00;100259.03;5046109;28;20051;-80
2023/12/21 04:31:52;;;;;;;27.48;14.68;;;;;;;8.32;100.00;100236.16;5048460;28;20028;-80
2023/12/21 04:34:17;;;;;;;30.00;15.40;;;;;;;8.34;100.00;100239.53;5038181;28;20091;-80
2023/12/21 04:36:43;;;;;;;30.85;14.05;;;;;;;8.38;100.00;100233.13;5035813;28;20029;-80
2023/12/21 04:39:08;;;;;;;26.35;14.10;;;;;;;8.41;100.00;100214.56;5041651;28;20131;-80
2023/12/21 04:41:33;;;;;;;25.27;13.68;;;;;;;8.44;100.00;100211.72;5045532;28;20036;-81
2023/12/21 04:43:59;;;;;;;26.23;13.43;;;;;;;8.46;100.00;100202.78;5043145;28;20444;-81
2023/12/21 04:46:24;;;;;;;26.55;13.35;;;;;;;8.48;100.00;100202.66;5044076;28;20051;-81
2023/12/21 04:48:50;;;;;;;24.27;12.80;;;;;;;8.51;100.00;100215.53;5049527;28;20028;-81
2023/12/21 04:51:16;;;;;;;30.23;12.75;;;;;;;8.52;100.00;100198.03;5029301;28;20021;-82
2023/12/21 04:53:41;;;;;;;26.38;12.07;;;;;;;8.53;100.00;100187.41;5029867;28;20099;-81
2023/12/21 04:56:06;;;;;;;26.08;11.75;;;;;;;8.56;100.00;100176.69;5030382;28;20118;-81
2023/12/21 04:58:32;;;;;;;23.77;11.98;;;;;;;8.56;100.00;100170.63;5030226;28;20033;-81
2023/12/21 05:01:00;;;;;;;23.40;11.27;;;;;;;8.55;100.00;100164.53;5029815;28;20030;-81
2023/12/21 05:03:25;;;;;;;20.13;11.20;;;;;;;8.58;100.00;100163.47;5028812;28;20021;-82
2023/12/21 05:05:51;;;;;;;26.73;11.20;;;;;;;8.58;100.00;100159.06;5044897;28;20027;-82
2023/12/21 05:08:17;;;;;;;23.85;10.35;;;;;;;8.58;100.00;100138.09;5043269;28;20348;-81
2023/12/21 05:10:42;;;;;;;24.25;10.85;;;;;;;8.60;100.00;100146.66;5040975;28;20120;-82
2023/12/21 05:13:08;;;;;;;21.42;9.90;;;;;;;8.63;100.00;100148.22;5029065;28;20028;-82
2023/12/21 05:15:33;;;;;;;22.40;10.23;;;;;;;8.63;100.00;100149.06;5029164;28;20036;-82
2023/12/21 05:17:59;;;;;;;22.92;9.32;;;;;;;8.65;100.00;100151.56;5028756;28;20036;-82
2023/12/21 05:20:24;;;;;;;19.80;8.90;;;;;;;8.67;100.00;100155.72;5029351;28;20022;-82
2023/12/21 05:22:49;;;;;;;20.15;8.55;;;;;;;8.68;100.00;100146.91;5031799;28;20029;-82
2023/12/21 05:25:18;;;;;;;21.52;7.90;;;;;;;8.69;100.00;100150.34;5028590;28;20029;-82
2023/12/21 05:27:43;;;;;;;17.75;7.10;;;;;;;8.71;100.00;100165.03;5031514;28;20481;-82
2023/12/21 05:30:10;;;;;;;16.00;7.38;;;;;;;8.73;100.00;100141.31;5032631;28;20102;-82
2023/12/21 05:32:35;;;;;;;16.35;7.03;;;;;;;8.76;100.00;100120.06;5045340;28;20028;-82
2023/12/21 05:35:03;;;;;;;22.65;7.25;;;;;;;8.74;100.00;100120.19;5048354;28;20053;-82
2023/12/21 05:37:29;;;;;;;14.85;6.32;;;;;;;8.76;100.00;100109.59;5041825;28;20044;-82
2023/12/21 05:39:54;;;;;;;20.77;6.63;;;;;;;8.77;100.00;100112.09;5038256;28;20025;-82
2023/12/21 05:42:20;;;;;;;13.05;5.80;;;;;;;8.79;100.00;100101.47;5043742;28;20041;-82
2023/12/21 05:44:45;;;;;;;18.95;6.93;;;;;;;8.80;100.00;100111.00;5032333;28;20052;-82
2023/12/21 05:47:10;;;;;;;18.27;6.00;;;;;;;8.82;100.00;100134.53;5043367;28;20033;-81
2023/12/21 05:49:36;;;;;;;12.05;5.28;;;;;;;8.83;100.00;100126.53;5031431;28;20025;-82
2023/12/21 05:52:01;;;;;;;13.88;5.03;;;;;;;8.86;100.00;100114.97;5042221;28;20032;-82
2023/12/21 05:54:30;;;;;;;13.48;5.03;;;;;;;8.86;100.00;100128.09;5044979;28;20052;-82
2023/12/21 05:56:56;;;;;;;15.80;5.13;;;;;;;8.88;100.00;100113.91;5048981;28;20033;-82
2023/12/21 05:59:22;;;;;;;12.52;5.10;;;;;;;8.86;100.00;100121.06;5030880;28;20036;-82
2023/12/21 06:01:48;;;;;;;15.88;5.10;;;;;;;8.86;100.00;100123.69;5047250;28;20449;-82
2023/12/21 06:04:13;;;;;;;14.48;5.20;;;;;;;8.86;100.00;100122.84;5041916;28;20439;-82
2023/12/21 06:06:45;;;;;;;13.93;5.70;;;;;;;8.86;100.00;100118.44;5030861;28;20029;-82
2023/12/21 06:09:13;;;;;;;15.85;6.82;;;;;;;8.85;100.00;100126.41;5032499;28;20029;-82
2023/12/21 06:11:39;;;;;;;14.63;6.35;;;;;;;8.81;100.00;100102.22;5036621;28;20470;-81
2023/12/21 06:14:04;;;;;;;14.90;7.10;;;;;;;8.81;100.00;100104.00;5039241;28;20017;-81
2023/12/21 06:16:30;;;;;;;17.85;8.02;;;;;;;8.75;100.00;100095.63;5031391;28;20044;-81
2023/12/21 06:18:55;;;;;;;16.65;8.27;;;;;;;8.74;100.00;100093.97;5044943;28;20112;-81
2023/12/21 06:21:23;;;;;;;18.77;8.52;;;;;;;8.71;100.00;100070.63;5043445;28;20106;-81
2023/12/21 06:23:48;;;;;;;16.35;8.48;;;;;;;8.69;100.00;100067.28;5045386;28;20354;-81
2023/12/21 06:26:14;;;;;;;17.90;10.07;;;;;;;8.67;100.00;100042.97;5047181;28;20275;-81
2023/12/21 06:28:40;;;;;;;20.33;10.02;;;;;;;8.67;100.00;100037.72;5041250;28;20473;-81
2023/12/21 06:31:05;;;;;;;17.38;9.23;;;;;;;8.64;100.00;100051.06;5039458;28;20103;-81
2023/12/21 06:33:31;;;;;;;17.90;9.50;;;;;;;8.63;100.00;100059.91;5045506;28;20204;-81
2023/12/21 06:35:56;;;;;;;19.65;9.68;;;;;;;8.62;100.00;100071.34;5048185;28;20021;-81
2023/12/21 06:38:22;;;;;;;21.10;9.30;;;;;;;8.61;100.00;100080.16;5044993;28;20627;-80
2023/12/21 06:40:47;;;;;;;19.58;9.35;;;;;;;8.61;100.00;100064.44;5042079;28;20033;-81
2023/12/21 06:43:12;;;;;;;17.23;9.20;;;;;;;8.61;100.00;100048.69;5045975;28;20033;-81
2023/12/21 06:45:39;;;;;;;19.88;8.77;;;;;;;8.61;100.00;100059.19;5046608;28;20405;-81
2023/12/21 06:48:05;;;;;;;15.13;7.55;;;;;;;8.63;100.00;100061.69;5048135;28;20029;-80
2023/12/21 06:50:30;;;;;;;17.95;7.30;;;;;;;8.64;100.00;100050.25;5047269;28;20529;-81
2023/12/21 06:52:55;;;;;;;18.83;7.85;;;;;;;8.64;100.00;100048.44;5048259;28;20033;-80
2023/12/21 06:55:21;;;;;;;15.88;6.10;;;;;;;8.67;100.00;100039.50;5045912;28;20029;-80
2023/12/21 06:57:46;;;;;;;14.30;6.25;;;;;;;8.67;100.00;100021.97;5051092;28;20480;-81
2023/12/21 07:00:12;;;;;;;16.33;5.95;;;;;;;8.69;100.00;100006.97;5045822;28;20025;-80
2023/12/21 07:02:37;;;;;;;14.82;5.60;;;;;;;8.70;100.00;99998.13;5034943;28;20117;-80
2023/12/21 07:05:03;;;;;;;19.17;6.07;;;;;;;8.71;100.00;100001.59;5030349;28;20030;-81
2023/12/21 07:07:29;;;;;;;13.52;5.72;;;;;;;8.72;100.00;100003.25;5044266;28;20028;-80
2023/12/21 07:09:54;;;;;;;13.68;5.85;;;;;;;8.71;100.00;99997.19;5027705;28;20462;-81
2023/12/21 07:12:20;;;;;;;15.45;6.20;;;;;;;8.72;100.00;99979.66;5043606;28;20033;-81
2023/12/21 07:14:46;;;;;;;17.95;6.03;;;;;;;8.71;100.00;99981.44;5042949;28;20043;-82
2023/12/21 07:17:12;;;;;;;14.73;6.18;;;;;;;8.72;100.00;99983.09;5034259;28;20029;-81
2023/12/21 07:19:37;;;;;;;13.88;6.00;;;;;;;8.71;100.00;99970.97;5051466;28;20095;-81
2023/12/21 07:22:04;;;;;;;16.45;6.85;;;;;;;8.73;100.00;99986.56;5049528;28;20083;-81
2023/12/21 07:24:30;;;;;;;13.95;5.93;;;;;;;8.74;100.00;99975.94;5061852;28;20035;-81
2023/12/21 07:26:56;;;;;;;15.40;5.45;;;;;;;8.76;100.00;99960.94;5050140;28;20029;-81
2023/12/21 07:29:21;;;;;;;12.88;5.47;;;;;;;8.78;100.00;99956.38;5061929;28;20024;-81
2023/12/21 07:31:46;;;;;;;13.85;5.20;;;;;;;8.82;100.00;99950.91;5071844;28;20032;-81
2023/12/21 07:34:12;;;;;;;11.45;4.35;;;;;;;8.84;100.00;99954.25;5070661;28;20488;-81
2023/12/21 07:36:37;;;;;;;15.13;4.80;;;;;;;8.86;100.00;99941.84;5068702;28;20115;-81
2023/12/21 07:39:04;;;;;;;10.82;4.22;;;;;;;8.90;100.00;99927.53;5059386;28;20025;-81
2023/12/21 07:41:30;;;;;;;18.08;4.40;;;;;;;8.93;100.00;99919.41;5045214;28;20117;-81
2023/12/21 07:43:55;;;;;;;10.68;4.03;;;;;;;8.95;100.00;99920.09;5029910;28;20033;-81
2023/12/21 07:46:21;;;;;;;12.30;4.40;;;;;;;8.98;100.00;99910.19;5041723;28;20025;-82
2023/12/21 07:48:46;;;;;;;11.13;3.92;;;;;;;9.04;100.00;99914.91;5049354;28;20551;-82
2023/12/21 07:51:12;;;;;;;11.98;4.55;;;;;;;9.06;100.00;99922.66;5049267;28;20017;-81
2023/12/21 07:53:38;;;;;;;11.48;3.83;;;;;;;9.07;100.00;99919.09;5049811;28;20025;-81
2023/12/21 07:56:04;;;;;;;9.75;3.65;;;;;;;9.10;100.00;99924.91;5050228;28;20543;-81
2023/12/21 07:58:29;;;;;;;10.00;4.13;;;;;;;9.09;100.00;99922.41;5049730;28;20029;-82
2023/12/21 08:00:55;;;;;;;10.60;4.30;;;;;;;9.07;100.00;99921.72;5048802;28;20017;-81
2023/12/21 08:03:21;;;;;;;11.23;4.57;;;;;;;9.06;100.00;99926.13;5046511;28;20039;-81
2023/12/21 08:05:47;;;;;;;9.52;4.00;;;;;;;9.05;100.00;99916.59;5049598;28;20025;-81
2023/12/21 08:08:12;;;;;;;7.97;3.72;;;;;;;9.02;100.00;99919.47;5050593;28;20032;-81
2023/12/21 08:10:37;;;;;;;11.20;3.45;;;;;;;9.01;100.00;99903.84;5048914;28;20043;-80
2023/12/21 08:13:03;;;;;;;8.93;3.67;;;;;;;9.02;100.00;99910.75;5049131;28;20111;-80
2023/12/21 08:15:28;;;;;;;10.52;4.25;;;;;;;8.98;100.00;99904.94;5048978;28;20092;-80
2023/12/21 08:17:56;;;;;;;8.52;3.83;;;;;;;8.97;100.00;99911.16;5049203;28;20049;-80
2023/12/21 08:20:23;;;;;;;9.27;3.92;;;;;;;8.97;100.00;99898.03;5036707;28;20025;-80
2023/12/21 08:22:48;;;;;;;9.73;4.03;;;;;;;8.97;100.00;99891.94;5033392;28;20150;-80
2023/12/21 08:25:13;;;;;;;10.23;3.90;;;;;;;8.96;100.00;99874.53;5047217;28;20116;-80
2023/12/21 08:27:41;;;;;;;13.60;4.70;;;;;;;8.95;100.00;99872.88;5045487;28;20473;-80
2023/12/21 08:30:07;;;;;;;9.85;4.40;;;;;;;8.95;100.00;99873.72;5048974;28;20471;-80
2023/12/21 08:32:32;;;;;;;7.93;4.07;;;;;;;8.94;100.00;99864.19;5046327;28;20461;-80
2023/12/21 08:35:04;;;;;;;8.82;4.60;;;;;;;8.95;100.00;99888.63;5042639;28;20018;-80
2023/12/21 08:37:30;;;;;;;9.93;4.38;;;;;;;8.93;100.00;99875.63;5030669;28;20029;-80
2023/12/21 08:39:55;;;;;;;11.40;4.70;;;;;;;8.95;100.00;99888.63;5041204;28;20035;-80
2023/12/21 08:42:20;;;;;;;10.77;4.70;;;;;;;8.94;100.00;99876.47;5041862;28;20060;-80
2023/12/21 08:44:48;;;;;;;9.07;4.20;;;;;;;8.95;100.00;99878.97;5038376;28;20108;-79
2023/12/21 08:47:13;;;;;;;7.95;4.10;;;;;;;8.95;100.00;99873.72;5040772;28;20036;-79
2023/12/21 08:49:39;;;;;;;9.90;4.40;;;;;;;8.95;100.00;99873.72;5046401;28;20118;-79
2023/12/21 08:52:04;;;;;;;10.57;4.45;;;;;;;8.97;100.00;99860.47;5049607;28;20052;-79
2023/12/21 08:54:30;;;;;;;8.35;4.03;;;;;;;8.96;100.00;99854.38;5047432;28;20067;-79
2023/12/21 08:56:55;;;;;;;9.02;4.22;;;;;;;8.98;100.00;99856.88;5038112;28;20534;-79
2023/12/21 08:59:21;;;;;;;10.95;4.70;;;;;;;9.00;100.00;99840.06;5029135;28;20025;-81
2023/12/21 09:01:46;;;;;;;7.00;4.35;;;;;;;9.01;100.00;99838.25;5039829;28;20033;-80
2023/12/21 09:04:12;;;;;;;8.52;4.13;;;;;;;9.02;100.00;99832.88;5031076;28;20481;-80
2023/12/21 09:06:37;;;;;;;12.15;4.68;;;;;;;9.05;100.00;99837.88;5040878;28;20028;-80
2023/12/21 09:09:04;;;;;;;8.48;4.55;;;;;;;9.04;100.00;99835.38;5047766;28;20455;-79
2023/12/21 09:11:29;;;;;;;9.43;3.92;;;;;;;9.08;100.00;99815.78;5045301;28;20890;-80
2023/12/21 09:13:55;;;;;;;11.05;3.72;;;;;;;9.10;100.00;99816.50;5028917;28;20021;-79
2023/12/21 09:16:22;;;;;;;9.18;3.50;;;;;;;9.14;100.00;99819.69;5042546;28;20123;-79
2023/12/21 09:18:47;;;;;;;11.65;4.20;;;;;;;9.16;100.00;99834.34;5034112;28;20103;-79
2023/12/21 09:21:13;;;;;;;9.13;3.80;;;;;;;9.18;100.00;99832.41;5045860;28;20489;-79
2023/12/21 09:23:44;;;;;;;8.23;3.75;;;;;;;9.21;100.00;99833.97;5042162;28;20024;-80
2023/12/21 09:26:10;;;;;;;9.18;3.75;;;;;;;9.23;100.00;99813.69;5049214;28;20017;-80
2023/12/21 09:28:39;;;;;;;9.32;3.85;;;;;;;9.26;100.00;99811.63;5048548;28;20418;-80
2023/12/21 09:31:08;;;;;;;7.90;3.15;;;;;;;9.25;100.00;99796.84;5043828;28;20051;-79
2023/12/21 09:33:34;;;;;;;9.35;3.03;;;;;;;9.27;100.00;99821.16;5049491;28;20049;-79
2023/12/21 09:36:03;;;;;;;7.45;2.63;;;;;;;9.29;100.00;99795.63;5042077;28;20021;-79
2023/12/21 09:38:31;;;;;;;9.13;2.70;;;;;;;9.29;100.00;99790.38;5030936;28;20489;-79
2023/12/21 09:41:07;;;;;;;7.78;3.00;;;;;;;9.32;100.00;99791.91;5046276;28;20021;-79
2023/12/21 09:43:33;;;;;;;6.47;2.28;;;;;;;9.33;100.00;99810.13;5042311;28;20040;-80
2023/12/21 09:46:01;;;;;;;9.77;2.47;;;;;;;9.36;100.00;99799.38;5046576;28;20079;-80
2023/12/21 09:48:30;;;;;;;6.10;1.98;;;;;;;9.39;100.00;99778.09;5035427;28;20473;-80
2023/12/21 09:51:04;;;;;;;8.35;2.30;;;;;;;9.42;100.00;99801.47;5037164;28;20048;-79
2023/12/21 09:53:30;;;;;;;13.48;2.75;;;;;;;9.50;100.00;99781.59;5044334;28;20150;-80
2023/12/21 09:56:00;;;;;;;9.02;2.63;;;;;;;9.50;100.00;99795.56;5032143;28;20430;-80
2023/12/21 09:58:25;;;;;;;9.85;2.17;;;;;;;9.54;100.00;99775.09;5039675;28;20029;-80
2023/12/21 10:00:50;;;;;;;10.68;2.33;;;;;;;9.58;100.00;99789.63;5028915;28;20133;-80
2023/12/21 10:03:16;;;;;;;10.50;2.50;;;;;;;9.63;100.00;99776.97;5028551;28;20064;-80
2023/12/21 10:05:42;;;;;;;9.95;2.30;;;;;;;9.68;100.00;99780.00;5038910;28;20116;-81
2023/12/21 10:08:09;;;;;;;9.23;2.10;;;;;;;9.69;100.00;99789.56;5048342;28;20021;-80
2023/12/21 10:10:36;;;;;;;12.13;2.72;;;;;;;9.72;100.00;99795.38;5047918;28;20476;-80
2023/12/21 10:13:02;;;;;;;13.40;2.35;;;;;;;9.80;100.00;99771.03;5038632;28;20104;-80
2023/12/21 10:15:32;;;;;;;10.52;3.40;;;;;;;9.83;100.00;99776.03;5034284;28;20047;-80
2023/12/21 10:17:58;;;;;;;11.82;2.75;;;;;;;9.87;100.00;99776.59;5034232;28;20030;-80
2023/12/21 10:20:24;;;;;;;10.18;2.60;;;;;;;9.91;100.00;99785.84;5040647;28;20496;-81
2023/12/21 10:22:49;;;;;;;10.48;2.60;;;;;;;9.94;100.00;99767.19;5045831;28;20170;-80
2023/12/21 10:25:15;;;;;;;11.82;2.47;;;;;;;9.96;100.00;99760.00;5045956;28;20552;-80
2023/12/21 10:27:52;;;;;;;11.50;2.55;;;;;;;10.02;100.00;99785.75;5043022;28;20039;-81
2023/12/21 10:30:20;;;;;;;13.00;2.55;;;;;;;10.04;100.00;99781.19;5032786;28;20029;-80
2023/12/21 10:32:45;;;;;;;9.80;2.35;;;;;;;10.05;100.00;99783.69;5043749;28;20130;-79
2023/12/21 10:35:11;;;;;;;10.93;2.53;;;;;;;10.05;100.00;99774.97;5026922;28;20069;-79
2023/12/21 10:37:36;;;;;;;11.75;2.40;;;;;;;10.05;100.00;99781.06;5042765;28;20036;-80
2023/12/21 10:40:03;;;;;;;9.68;2.08;;;;;;;10.05;100.00;99781.06;5047794;28;20136;-80
2023/12/21 10:42:29;;;;;;;7.75;2.20;;;;;;;10.08;100.00;99774.69;5047965;28;20108;-80
2023/12/21 10:44:55;;;;;;;7.00;2.17;;;;;;;10.09;100.00;99767.66;5046472;28;20033;-81
2023/12/21 10:47:21;;;;;;;10.60;1.95;;;;;;;10.12;100.00;99772.63;5027013;28;20033;-79
2023/12/21 10:49:50;;;;;;;12.45;2.25;;;;;;;10.12;100.00;99785.78;5046184;28;20073;-79
2023/12/21 10:52:17;;;;;;;10.32;2.67;;;;;;;10.13;100.00;99771.66;5066830;28;20032;-79
2023/12/21 10:54:43;;;;;;;8.48;1.70;;;;;;;10.11;100.00;99778.84;5051974;28;20021;-81
2023/12/21 10:57:09;;;;;;;8.52;2.05;;;;;;;10.08;100.00;99777.31;5047460;28;20577;-80
2023/12/21 10:59:35;;;;;;;8.32;2.17;;;;;;;10.07;100.00;99757.28;5049084;28;20505;-81
2023/12/21 11:02:02;;;;;;;9.13;2.38;;;;;;;10.04;100.00;99766.25;5051509;28;20517;-80
2023/12/21 11:04:28;;;;;;;10.60;2.20;;;;;;;10.10;100.00;99761.44;5051836;28;20027;-80
2023/12/21 11:07:00;;;;;;;6.72;1.70;;;;;;;10.14;100.00;99752.28;5045971;28;20036;-80
2023/12/21 11:09:31;;;;;;;8.80;2.37;;;;;;;10.19;100.00;99734.31;5042760;28;20095;-80
2023/12/21 11:11:57;;;;;;;8.50;2.17;;;;;;;10.23;100.00;99738.34;5044777;28;20404;-81